sensor_id;sensor_type;location;lat;lon;timestamp;temperature;humidity
19970;DHT22;10146;47.754;9.566;2023-05-10T00:02:10;14.20;99.90
19970;DHT22;10146;47.754;9.566;2023-05-10T00:04:36;14.10;99.90
19970;DHT22;10146;47.754;9.566;2023-05-10T00:07:02;14.10;99.90
19970;DHT22;10146;47.754;9.566;2023-05-10T00:09:27;14.00;99.90
19970;DHT22;10146;47.754;9.566;2023-05-10T00:11:53;14.00;99.90
19970;DHT22;10146;47.754;9.566;2023-05-10T00:14:19;14.00;99.90
19970;DHT22;10146;47.754;9.566;2023-05-10T00:16:44;14.00;99.90
19970;DHT22;10146;47.754;9.566;2023-05-10T00:19:10;14.00;99.90
19970;DHT22;10146;47.754;9.566;2023-05-10T00:21:36;14.00;99.90
19970;DHT22;10146;47.754;9.566;2023-05-10T00:24:01;14.10;99.90
19970;DHT22;10146;47.754;9.566;2023-05-10T00:26:27;14.10;99.90
19970;DHT22;10146;47.754;9.566;2023-05-10T00:28:53;14.00;99.90
19970;DHT22;10146;47.754;9.566;2023-05-10T00:31:18;14.00;99.90
19970;DHT22;10146;47.754;9.566;2023-05-10T00:33:44;14.00;99.90
19970;DHT22;10146;47.754;9.566;2023-05-10T00:36:10;13.80;99.90
19970;DHT22;10146;47.754;9.566;2023-05-10T00:38:36;13.80;99.90
19970;DHT22;10146;47.754;9.566;2023-05-10T00:41:01;13.80;99.90
19970;DHT22;10146;47.754;9.566;2023-05-10T00:43:27;13.80;99.90
19970;DHT22;10146;47.754;9.566;2023-05-10T00:45:53;13.70;99.90
19970;DHT22;10146;47.754;9.566;2023-05-10T00:48:19;13.70;99.90
19970;DHT22;10146;47.754;9.566;2023-05-10T00:50:45;13.70;99.90
19970;DHT22;10146;47.754;9.566;2023-05-10T00:53:10;13.70;99.90
19970;DHT22;10146;47.754;9.566;2023-05-10T00:55:36;13.60;99.90
19970;DHT22;10146;47.754;9.566;2023-05-10T00:58:03;13.70;99.90
19970;DHT22;10146;47.754;9.566;2023-05-10T01:00:28;13.70;99.90
19970;DHT22;10146;47.754;9.566;2023-05-10T01:02:55;13.70;99.90
19970;DHT22;10146;47.754;9.566;2023-05-10T01:05:21;13.70;99.90
19970;DHT22;10146;47.754;9.566;2023-05-10T01:07:46;13.80;99.90
19970;DHT22;10146;47.754;9.566;2023-05-10T01:10:12;13.70;99.90
19970;DHT22;10146;47.754;9.566;2023-05-10T01:12:41;13.70;99.90
19970;DHT22;10146;47.754;9.566;2023-05-10T01:15:08;13.70;99.90
19970;DHT22;10146;47.754;9.566;2023-05-10T01:17:38;13.60;99.90
19970;DHT22;10146;47.754;9.566;2023-05-10T01:20:05;13.60;99.90
19970;DHT22;10146;47.754;9.566;2023-05-10T01:22:39;13.50;99.90
19970;DHT22;10146;47.754;9.566;2023-05-10T01:34:25;13.50;99.90
19970;DHT22;10146;47.754;9.566;2023-05-10T01:37:00;13.50;99.90
19970;DHT22;10146;47.754;9.566;2023-05-10T01:42:21;13.60;99.90
19970;DHT22;10146;47.754;9.566;2023-05-10T01:47:37;13.60;99.90
19970;DHT22;10146;47.754;9.566;2023-05-10T01:50:08;13.60;99.90
19970;DHT22;10146;47.754;9.566;2023-05-10T01:52:41;13.60;99.90
19970;DHT22;10146;47.754;9.566;2023-05-10T01:55:13;13.60;99.90
19970;DHT22;10146;47.754;9.566;2023-05-10T01:57:42;13.60;99.90
19970;DHT22;10146;47.754;9.566;2023-05-10T02:00:09;13.50;99.90
19970;DHT22;10146;47.754;9.566;2023-05-10T02:02:40;13.60;99.90
19970;DHT22;10146;47.754;9.566;2023-05-10T02:05:08;13.60;99.90
19970;DHT22;10146;47.754;9.566;2023-05-10T02:07:35;13.60;99.90
19970;DHT22;10146;47.754;9.566;2023-05-10T02:10:06;13.50;99.90
19970;DHT22;10146;47.754;9.566;2023-05-10T02:12:36;13.50;99.90
19970;DHT22;10146;47.754;9.566;2023-05-10T02:15:03;13.60;99.90
19970;DHT22;10146;47.754;9.566;2023-05-10T02:17:31;13.60;99.90
19970;DHT22;10146;47.754;9.566;2023-05-10T02:19:59;13.50;99.90
19970;DHT22;10146;47.754;9.566;2023-05-10T02:22:26;13.50;99.90
19970;DHT22;10146;47.754;9.566;2023-05-10T02:24:53;13.50;99.90
19970;DHT22;10146;47.754;9.566;2023-05-10T02:27:20;13.40;99.90
19970;DHT22;10146;47.754;9.566;2023-05-10T02:29:46;13.30;99.90
19970;DHT22;10146;47.754;9.566;2023-05-10T02:32:14;13.20;99.90
19970;DHT22;10146;47.754;9.566;2023-05-10T02:34:40;13.20;99.90
19970;DHT22;10146;47.754;9.566;2023-05-10T02:37:06;13.10;99.90
19970;DHT22;10146;47.754;9.566;2023-05-10T02:39:33;13.10;99.90
19970;DHT22;10146;47.754;9.566;2023-05-10T02:42:00;13.10;99.90
19970;DHT22;10146;47.754;9.566;2023-05-10T02:44:28;13.10;99.90
19970;DHT22;10146;47.754;9.566;2023-05-10T02:46:56;13.10;99.90
19970;DHT22;10146;47.754;9.566;2023-05-10T02:49:22;13.10;99.90
19970;DHT22;10146;47.754;9.566;2023-05-10T02:51:51;13.10;99.90
19970;DHT22;10146;47.754;9.566;2023-05-10T02:54:22;13.10;99.90
19970;DHT22;10146;47.754;9.566;2023-05-10T02:57:00;13.10;99.90
19970;DHT22;10146;47.754;9.566;2023-05-10T02:59:29;13.10;99.90
19970;DHT22;10146;47.754;9.566;2023-05-10T03:01:54;13.00;99.90
19970;DHT22;10146;47.754;9.566;2023-05-10T03:04:20;13.00;99.90
19970;DHT22;10146;47.754;9.566;2023-05-10T03:06:46;13.00;99.90
19970;DHT22;10146;47.754;9.566;2023-05-10T03:09:12;13.00;99.90
19970;DHT22;10146;47.754;9.566;2023-05-10T03:14:56;13.00;99.90
19970;DHT22;10146;47.754;9.566;2023-05-10T03:17:52;12.90;99.90
19970;DHT22;10146;47.754;9.566;2023-05-10T03:20:22;12.90;99.90
19970;DHT22;10146;47.754;9.566;2023-05-10T03:22:53;12.90;99.90
19970;DHT22;10146;47.754;9.566;2023-05-10T03:25:21;12.90;99.90
19970;DHT22;10146;47.754;9.566;2023-05-10T03:27:47;12.90;99.90
19970;DHT22;10146;47.754;9.566;2023-05-10T03:30:14;12.90;99.90
19970;DHT22;10146;47.754;9.566;2023-05-10T03:32:39;12.90;99.90
19970;DHT22;10146;47.754;9.566;2023-05-10T03:35:09;12.90;99.90
19970;DHT22;10146;47.754;9.566;2023-05-10T03:37:35;12.90;99.90
19970;DHT22;10146;47.754;9.566;2023-05-10T03:40:01;12.90;99.90
19970;DHT22;10146;47.754;9.566;2023-05-10T03:42:27;12.90;99.90
19970;DHT22;10146;47.754;9.566;2023-05-10T03:44:53;12.90;99.90
19970;DHT22;10146;47.754;9.566;2023-05-10T03:47:19;12.90;99.90
19970;DHT22;10146;47.754;9.566;2023-05-10T03:49:45;13.00;99.90
19970;DHT22;10146;47.754;9.566;2023-05-10T03:52:11;12.90;99.90
19970;DHT22;10146;47.754;9.566;2023-05-10T03:54:37;12.90;99.90
19970;DHT22;10146;47.754;9.566;2023-05-10T03:57:03;12.90;99.90
19970;DHT22;10146;47.754;9.566;2023-05-10T03:59:29;12.90;99.90
19970;DHT22;10146;47.754;9.566;2023-05-10T04:01:55;12.90;99.90
19970;DHT22;10146;47.754;9.566;2023-05-10T04:04:21;12.90;99.90
19970;DHT22;10146;47.754;9.566;2023-05-10T04:06:47;12.90;99.90
19970;DHT22;10146;47.754;9.566;2023-05-10T04:09:13;12.90;99.90
19970;DHT22;10146;47.754;9.566;2023-05-10T04:11:39;12.90;99.90
19970;DHT22;10146;47.754;9.566;2023-05-10T04:14:05;12.90;99.90
19970;DHT22;10146;47.754;9.566;2023-05-10T04:16:30;13.00;99.90
19970;DHT22;10146;47.754;9.566;2023-05-10T04:18:56;13.00;99.90
19970;DHT22;10146;47.754;9.566;2023-05-10T04:21:21;12.90;99.90
19970;DHT22;10146;47.754;9.566;2023-05-10T04:23:47;12.90;99.90
19970;DHT22;10146;47.754;9.566;2023-05-10T04:26:13;13.00;99.90
19970;DHT22;10146;47.754;9.566;2023-05-10T04:28:39;13.00;99.90
19970;DHT22;10146;47.754;9.566;2023-05-10T04:31:05;13.10;99.90
19970;DHT22;10146;47.754;9.566;2023-05-10T04:33:32;13.10;99.90
19970;DHT22;10146;47.754;9.566;2023-05-10T04:35:58;13.10;99.90
19970;DHT22;10146;47.754;9.566;2023-05-10T04:38:23;13.10;99.90
19970;DHT22;10146;47.754;9.566;2023-05-10T04:40:50;13.10;99.90
19970;DHT22;10146;47.754;9.566;2023-05-10T04:43:15;13.10;99.90
19970;DHT22;10146;47.754;9.566;2023-05-10T04:45:41;13.10;99.90
19970;DHT22;10146;47.754;9.566;2023-05-10T04:48:06;13.20;99.90
19970;DHT22;10146;47.754;9.566;2023-05-10T04:50:32;13.10;99.90
19970;DHT22;10146;47.754;9.566;2023-05-10T04:52:58;13.10;99.90
19970;DHT22;10146;47.754;9.566;2023-05-10T04:55:24;13.10;99.90
19970;DHT22;10146;47.754;9.566;2023-05-10T04:57:50;13.10;99.90
19970;DHT22;10146;47.754;9.566;2023-05-10T05:00:16;13.20;99.90
19970;DHT22;10146;47.754;9.566;2023-05-10T05:02:45;13.20;99.90
19970;DHT22;10146;47.754;9.566;2023-05-10T05:05:11;13.20;99.90
19970;DHT22;10146;47.754;9.566;2023-05-10T05:07:37;13.30;99.90
19970;DHT22;10146;47.754;9.566;2023-05-10T05:10:07;13.40;99.90
19970;DHT22;10146;47.754;9.566;2023-05-10T05:12:33;13.50;99.90
19970;DHT22;10146;47.754;9.566;2023-05-10T05:14:59;13.60;99.90
19970;DHT22;10146;47.754;9.566;2023-05-10T05:17:25;13.60;99.90
19970;DHT22;10146;47.754;9.566;2023-05-10T05:19:52;13.60;99.90
19970;DHT22;10146;47.754;9.566;2023-05-10T05:22:18;13.60;99.90
19970;DHT22;10146;47.754;9.566;2023-05-10T05:24:53;13.60;99.90
19970;DHT22;10146;47.754;9.566;2023-05-10T05:27:19;13.70;99.90
19970;DHT22;10146;47.754;9.566;2023-05-10T05:29:47;13.70;99.90
19970;DHT22;10146;47.754;9.566;2023-05-10T05:32:13;13.70;99.90
19970;DHT22;10146;47.754;9.566;2023-05-10T05:34:38;13.80;99.90
19970;DHT22;10146;47.754;9.566;2023-05-10T05:37:04;13.80;99.90
19970;DHT22;10146;47.754;9.566;2023-05-10T05:39:30;13.80;99.90
19970;DHT22;10146;47.754;9.566;2023-05-10T05:41:55;13.80;99.90
19970;DHT22;10146;47.754;9.566;2023-05-10T05:44:21;13.80;99.90
19970;DHT22;10146;47.754;9.566;2023-05-10T05:46:46;13.80;99.90
19970;DHT22;10146;47.754;9.566;2023-05-10T05:49:12;13.80;99.90
19970;DHT22;10146;47.754;9.566;2023-05-10T05:51:37;13.70;99.90
19970;DHT22;10146;47.754;9.566;2023-05-10T05:54:03;13.80;99.90
19970;DHT22;10146;47.754;9.566;2023-05-10T05:56:29;13.80;99.90
19970;DHT22;10146;47.754;9.566;2023-05-10T05:58:55;13.70;99.90
19970;DHT22;10146;47.754;9.566;2023-05-10T06:01:21;13.60;99.90
19970;DHT22;10146;47.754;9.566;2023-05-10T06:03:46;13.60;99.90
19970;DHT22;10146;47.754;9.566;2023-05-10T06:06:12;13.60;99.90
19970;DHT22;10146;47.754;9.566;2023-05-10T06:08:37;13.60;99.90
19970;DHT22;10146;47.754;9.566;2023-05-10T06:11:03;13.70;99.90
19970;DHT22;10146;47.754;9.566;2023-05-10T06:13:29;13.70;99.90
19970;DHT22;10146;47.754;9.566;2023-05-10T06:16:00;13.80;99.90
19970;DHT22;10146;47.754;9.566;2023-05-10T06:18:26;13.90;99.90
19970;DHT22;10146;47.754;9.566;2023-05-10T06:20:52;13.90;99.90
19970;DHT22;10146;47.754;9.566;2023-05-10T06:23:17;14.00;99.90
19970;DHT22;10146;47.754;9.566;2023-05-10T06:25:43;14.00;99.90
19970;DHT22;10146;47.754;9.566;2023-05-10T06:28:09;14.00;99.90
19970;DHT22;10146;47.754;9.566;2023-05-10T06:30:36;14.00;99.90
19970;DHT22;10146;47.754;9.566;2023-05-10T06:33:01;14.10;99.90
19970;DHT22;10146;47.754;9.566;2023-05-10T06:35:28;14.10;99.90
19970;DHT22;10146;47.754;9.566;2023-05-10T06:37:54;14.10;99.90
19970;DHT22;10146;47.754;9.566;2023-05-10T06:40:20;14.10;99.90
19970;DHT22;10146;47.754;9.566;2023-05-10T06:42:46;14.00;99.90
19970;DHT22;10146;47.754;9.566;2023-05-10T06:45:13;14.00;99.90
19970;DHT22;10146;47.754;9.566;2023-05-10T06:47:40;14.10;99.90
19970;DHT22;10146;47.754;9.566;2023-05-10T06:50:07;14.00;99.90
19970;DHT22;10146;47.754;9.566;2023-05-10T06:52:33;14.00;99.90
19970;DHT22;10146;47.754;9.566;2023-05-10T06:54:58;14.00;99.90
19970;DHT22;10146;47.754;9.566;2023-05-10T06:57:24;13.90;99.90
19970;DHT22;10146;47.754;9.566;2023-05-10T06:59:50;14.00;99.90
19970;DHT22;10146;47.754;9.566;2023-05-10T07:02:15;13.90;99.90
19970;DHT22;10146;47.754;9.566;2023-05-10T07:04:41;13.90;99.90
19970;DHT22;10146;47.754;9.566;2023-05-10T07:07:07;13.80;99.90
19970;DHT22;10146;47.754;9.566;2023-05-10T07:09:33;13.80;99.90
19970;DHT22;10146;47.754;9.566;2023-05-10T07:11:59;13.80;99.90
19970;DHT22;10146;47.754;9.566;2023-05-10T07:14:25;13.90;99.90
19970;DHT22;10146;47.754;9.566;2023-05-10T07:16:50;13.90;99.90
19970;DHT22;10146;47.754;9.566;2023-05-10T07:19:16;14.00;99.90
19970;DHT22;10146;47.754;9.566;2023-05-10T07:21:41;14.00;99.90
19970;DHT22;10146;47.754;9.566;2023-05-10T07:24:08;14.10;99.90
19970;DHT22;10146;47.754;9.566;2023-05-10T07:26:34;14.00;99.90
19970;DHT22;10146;47.754;9.566;2023-05-10T07:28:59;14.10;99.90
19970;DHT22;10146;47.754;9.566;2023-05-10T07:31:25;14.10;99.90
19970;DHT22;10146;47.754;9.566;2023-05-10T07:33:51;14.00;99.90
19970;DHT22;10146;47.754;9.566;2023-05-10T07:36:16;14.00;99.90
19970;DHT22;10146;47.754;9.566;2023-05-10T07:38:42;13.90;99.90
19970;DHT22;10146;47.754;9.566;2023-05-10T07:41:07;14.00;99.90
19970;DHT22;10146;47.754;9.566;2023-05-10T07:43:33;14.00;99.90
19970;DHT22;10146;47.754;9.566;2023-05-10T07:45:58;14.00;99.90
19970;DHT22;10146;47.754;9.566;2023-05-10T07:48:25;14.00;99.90
19970;DHT22;10146;47.754;9.566;2023-05-10T07:50:51;14.10;99.90
19970;DHT22;10146;47.754;9.566;2023-05-10T07:53:16;14.20;99.90
19970;DHT22;10146;47.754;9.566;2023-05-10T07:55:42;14.20;99.90
19970;DHT22;10146;47.754;9.566;2023-05-10T07:58:08;14.20;99.90
19970;DHT22;10146;47.754;9.566;2023-05-10T08:00:34;14.30;99.90
19970;DHT22;10146;47.754;9.566;2023-05-10T08:02:59;14.30;99.90
19970;DHT22;10146;47.754;9.566;2023-05-10T08:05:25;14.30;99.90
19970;DHT22;10146;47.754;9.566;2023-05-10T08:07:50;14.40;99.90
19970;DHT22;10146;47.754;9.566;2023-05-10T08:10:16;14.20;99.90
19970;DHT22;10146;47.754;9.566;2023-05-10T08:12:42;14.10;99.90
19970;DHT22;10146;47.754;9.566;2023-05-10T08:15:08;14.10;99.90
19970;DHT22;10146;47.754;9.566;2023-05-10T08:17:34;14.10;99.90
19970;DHT22;10146;47.754;9.566;2023-05-10T08:19:59;14.30;99.90
19970;DHT22;10146;47.754;9.566;2023-05-10T08:22:25;14.40;99.90
19970;DHT22;10146;47.754;9.566;2023-05-10T08:24:51;14.60;99.90
19970;DHT22;10146;47.754;9.566;2023-05-10T08:27:16;14.80;99.90
19970;DHT22;10146;47.754;9.566;2023-05-10T08:29:42;15.00;99.90
19970;DHT22;10146;47.754;9.566;2023-05-10T08:32:08;14.90;99.90
19970;DHT22;10146;47.754;9.566;2023-05-10T08:34:33;15.20;99.90
19970;DHT22;10146;47.754;9.566;2023-05-10T08:36:59;15.30;99.90
19970;DHT22;10146;47.754;9.566;2023-05-10T08:39:24;15.30;99.90
19970;DHT22;10146;47.754;9.566;2023-05-10T08:41:51;15.20;99.90
19970;DHT22;10146;47.754;9.566;2023-05-10T08:44:19;15.20;99.90
19970;DHT22;10146;47.754;9.566;2023-05-10T08:46:46;15.40;99.90
19970;DHT22;10146;47.754;9.566;2023-05-10T08:49:16;15.50;99.90
19970;DHT22;10146;47.754;9.566;2023-05-10T08:51:53;15.70;99.90
19970;DHT22;10146;47.754;9.566;2023-05-10T08:54:21;15.50;99.90
19970;DHT22;10146;47.754;9.566;2023-05-10T08:56:47;15.30;99.90
19970;DHT22;10146;47.754;9.566;2023-05-10T08:59:13;15.20;99.90
19970;DHT22;10146;47.754;9.566;2023-05-10T09:01:40;15.20;99.90
19970;DHT22;10146;47.754;9.566;2023-05-10T09:04:06;15.20;99.90
19970;DHT22;10146;47.754;9.566;2023-05-10T09:06:33;15.20;99.90
19970;DHT22;10146;47.754;9.566;2023-05-10T09:08:59;15.30;99.90
19970;DHT22;10146;47.754;9.566;2023-05-10T09:11:25;15.40;99.90
19970;DHT22;10146;47.754;9.566;2023-05-10T09:13:54;15.60;99.90
19970;DHT22;10146;47.754;9.566;2023-05-10T09:16:21;15.60;99.90
19970;DHT22;10146;47.754;9.566;2023-05-10T09:18:47;15.70;99.90
19970;DHT22;10146;47.754;9.566;2023-05-10T09:21:13;15.70;99.90
19970;DHT22;10146;47.754;9.566;2023-05-10T09:23:43;15.70;99.90
19970;DHT22;10146;47.754;9.566;2023-05-10T09:26:08;15.70;99.90
19970;DHT22;10146;47.754;9.566;2023-05-10T09:28:49;15.60;99.90
19970;DHT22;10146;47.754;9.566;2023-05-10T09:31:15;15.80;99.90
19970;DHT22;10146;47.754;9.566;2023-05-10T09:33:47;16.00;99.90
19970;DHT22;10146;47.754;9.566;2023-05-10T09:36:13;16.00;99.90
19970;DHT22;10146;47.754;9.566;2023-05-10T09:38:47;15.90;99.90
19970;DHT22;10146;47.754;9.566;2023-05-10T09:41:23;16.00;99.90
19970;DHT22;10146;47.754;9.566;2023-05-10T09:43:49;15.90;99.90
19970;DHT22;10146;47.754;9.566;2023-05-10T09:46:15;15.90;99.90
19970;DHT22;10146;47.754;9.566;2023-05-10T09:48:43;16.00;99.90
19970;DHT22;10146;47.754;9.566;2023-05-10T09:51:09;16.00;99.90
19970;DHT22;10146;47.754;9.566;2023-05-10T09:53:35;16.00;99.90
19970;DHT22;10146;47.754;9.566;2023-05-10T09:56:00;16.00;99.90
19970;DHT22;10146;47.754;9.566;2023-05-10T09:58:26;16.10;99.90
19970;DHT22;10146;47.754;9.566;2023-05-10T10:00:52;16.10;99.90
19970;DHT22;10146;47.754;9.566;2023-05-10T10:03:20;16.10;99.90
19970;DHT22;10146;47.754;9.566;2023-05-10T10:05:47;16.10;99.90
19970;DHT22;10146;47.754;9.566;2023-05-10T10:08:14;16.00;99.90
19970;DHT22;10146;47.754;9.566;2023-05-10T10:10:40;16.00;99.90
19970;DHT22;10146;47.754;9.566;2023-05-10T10:13:07;16.10;99.90
19970;DHT22;10146;47.754;9.566;2023-05-10T10:15:42;16.00;99.90
19970;DHT22;10146;47.754;9.566;2023-05-10T10:18:13;16.10;99.90
19970;DHT22;10146;47.754;9.566;2023-05-10T10:20:39;16.10;99.90
19970;DHT22;10146;47.754;9.566;2023-05-10T10:23:05;16.00;99.90
19970;DHT22;10146;47.754;9.566;2023-05-10T10:25:31;15.90;99.90
19970;DHT22;10146;47.754;9.566;2023-05-10T10:30:45;15.50;99.90
19970;DHT22;10146;47.754;9.566;2023-05-10T10:33:42;15.60;99.90
19970;DHT22;10146;47.754;9.566;2023-05-10T10:36:15;15.70;99.90
19970;DHT22;10146;47.754;9.566;2023-05-10T10:41:30;15.70;99.90
19970;DHT22;10146;47.754;9.566;2023-05-10T10:52:31;15.20;99.90
19970;DHT22;10146;47.754;9.566;2023-05-10T10:55:17;15.20;99.90
19970;DHT22;10146;47.754;9.566;2023-05-10T11:02:59;15.00;99.90
19970;DHT22;10146;47.754;9.566;2023-05-10T11:05:49;15.10;99.90
19970;DHT22;10146;47.754;9.566;2023-05-10T11:08:28;15.20;99.90
19970;DHT22;10146;47.754;9.566;2023-05-10T11:13:42;15.60;99.90
19970;DHT22;10146;47.754;9.566;2023-05-10T11:16:15;15.80;99.90
19970;DHT22;10146;47.754;9.566;2023-05-10T11:21:23;16.20;99.90
19970;DHT22;10146;47.754;9.566;2023-05-10T11:23:51;16.20;99.90
19970;DHT22;10146;47.754;9.566;2023-05-10T11:26:17;16.10;99.90
19970;DHT22;10146;47.754;9.566;2023-05-10T11:28:44;16.10;99.90
19970;DHT22;10146;47.754;9.566;2023-05-10T11:31:12;16.00;99.90
19970;DHT22;10146;47.754;9.566;2023-05-10T11:33:46;16.00;99.90
19970;DHT22;10146;47.754;9.566;2023-05-10T11:36:17;16.00;99.90
19970;DHT22;10146;47.754;9.566;2023-05-10T11:38:43;16.00;99.90
19970;DHT22;10146;47.754;9.566;2023-05-10T11:41:09;15.90;99.90
19970;DHT22;10146;47.754;9.566;2023-05-10T11:43:37;15.60;99.90
19970;DHT22;10146;47.754;9.566;2023-05-10T11:46:05;15.30;99.90
19970;DHT22;10146;47.754;9.566;2023-05-10T11:48:31;14.90;99.90
19970;DHT22;10146;47.754;9.566;2023-05-10T11:50:57;14.90;99.90
19970;DHT22;10146;47.754;9.566;2023-05-10T11:53:25;14.70;99.90
19970;DHT22;10146;47.754;9.566;2023-05-10T11:55:51;14.70;99.90
19970;DHT22;10146;47.754;9.566;2023-05-10T11:58:18;14.90;99.90
19970;DHT22;10146;47.754;9.566;2023-05-10T12:00:44;14.90;99.90
19970;DHT22;10146;47.754;9.566;2023-05-10T12:03:11;14.90;99.90
19970;DHT22;10146;47.754;9.566;2023-05-10T12:05:37;15.10;99.90
19970;DHT22;10146;47.754;9.566;2023-05-10T12:08:19;15.40;99.90
19970;DHT22;10146;47.754;9.566;2023-05-10T12:10:45;15.60;99.90
19970;DHT22;10146;47.754;9.566;2023-05-10T12:13:12;15.80;99.90
19970;DHT22;10146;47.754;9.566;2023-05-10T12:15:42;15.90;99.90
19970;DHT22;10146;47.754;9.566;2023-05-10T12:18:12;16.10;99.90
19970;DHT22;10146;47.754;9.566;2023-05-10T12:20:38;16.20;99.90
19970;DHT22;10146;47.754;9.566;2023-05-10T12:23:04;16.40;99.90
19970;DHT22;10146;47.754;9.566;2023-05-10T12:25:38;16.40;99.90
19970;DHT22;10146;47.754;9.566;2023-05-10T12:28:06;16.30;99.90
19970;DHT22;10146;47.754;9.566;2023-05-10T12:30:33;16.20;99.90
19970;DHT22;10146;47.754;9.566;2023-05-10T12:33:01;16.10;99.90
19970;DHT22;10146;47.754;9.566;2023-05-10T12:35:30;16.30;99.90
19970;DHT22;10146;47.754;9.566;2023-05-10T12:37:55;16.40;99.90
19970;DHT22;10146;47.754;9.566;2023-05-10T12:40:21;16.40;99.90
19970;DHT22;10146;47.754;9.566;2023-05-10T12:42:47;16.50;99.90
19970;DHT22;10146;47.754;9.566;2023-05-10T12:45:14;16.60;99.90
19970;DHT22;10146;47.754;9.566;2023-05-10T12:47:39;16.60;99.90
19970;DHT22;10146;47.754;9.566;2023-05-10T12:50:05;16.60;99.90
19970;DHT22;10146;47.754;9.566;2023-05-10T12:52:32;16.60;99.90
19970;DHT22;10146;47.754;9.566;2023-05-10T12:54:58;16.70;99.90
19970;DHT22;10146;47.754;9.566;2023-05-10T12:57:25;16.80;99.90
19970;DHT22;10146;47.754;9.566;2023-05-10T12:59:50;16.90;99.90
19970;DHT22;10146;47.754;9.566;2023-05-10T13:02:16;17.00;99.90
19970;DHT22;10146;47.754;9.566;2023-05-10T13:04:46;16.90;99.90
19970;DHT22;10146;47.754;9.566;2023-05-10T13:07:12;16.90;99.90
19970;DHT22;10146;47.754;9.566;2023-05-10T13:09:38;16.90;99.90
19970;DHT22;10146;47.754;9.566;2023-05-10T13:12:04;17.00;99.90
19970;DHT22;10146;47.754;9.566;2023-05-10T13:14:30;17.20;99.90
19970;DHT22;10146;47.754;9.566;2023-05-10T13:16:56;17.20;99.90
19970;DHT22;10146;47.754;9.566;2023-05-10T13:19:21;17.10;99.90
19970;DHT22;10146;47.754;9.566;2023-05-10T13:21:47;17.00;99.90
19970;DHT22;10146;47.754;9.566;2023-05-10T13:24:13;17.00;99.90
19970;DHT22;10146;47.754;9.566;2023-05-10T13:26:40;17.00;99.90
19970;DHT22;10146;47.754;9.566;2023-05-10T13:29:06;17.00;99.90
19970;DHT22;10146;47.754;9.566;2023-05-10T13:31:32;17.00;99.90
19970;DHT22;10146;47.754;9.566;2023-05-10T13:33:58;16.80;99.90
19970;DHT22;10146;47.754;9.566;2023-05-10T13:36:24;16.70;99.90
19970;DHT22;10146;47.754;9.566;2023-05-10T13:38:49;16.70;99.90
19970;DHT22;10146;47.754;9.566;2023-05-10T13:41:15;16.80;99.90
19970;DHT22;10146;47.754;9.566;2023-05-10T13:43:40;16.70;99.90
19970;DHT22;10146;47.754;9.566;2023-05-10T13:46:06;16.80;99.90
19970;DHT22;10146;47.754;9.566;2023-05-10T13:48:31;16.90;99.90
19970;DHT22;10146;47.754;9.566;2023-05-10T13:50:57;16.90;99.90
19970;DHT22;10146;47.754;9.566;2023-05-10T13:53:23;16.80;99.90
19970;DHT22;10146;47.754;9.566;2023-05-10T13:55:48;16.80;99.90
19970;DHT22;10146;47.754;9.566;2023-05-10T13:58:14;16.70;99.90
19970;DHT22;10146;47.754;9.566;2023-05-10T14:00:40;16.60;99.90
19970;DHT22;10146;47.754;9.566;2023-05-10T14:03:06;16.70;99.90
19970;DHT22;10146;47.754;9.566;2023-05-10T14:05:32;16.60;99.90
19970;DHT22;10146;47.754;9.566;2023-05-10T14:07:58;16.60;99.90
19970;DHT22;10146;47.754;9.566;2023-05-10T14:10:23;16.70;99.90
19970;DHT22;10146;47.754;9.566;2023-05-10T14:12:49;16.80;99.90
19970;DHT22;10146;47.754;9.566;2023-05-10T14:15:15;16.80;99.90
19970;DHT22;10146;47.754;9.566;2023-05-10T14:17:41;16.80;99.90
19970;DHT22;10146;47.754;9.566;2023-05-10T14:20:07;16.80;99.90
19970;DHT22;10146;47.754;9.566;2023-05-10T14:22:33;16.90;99.90
19970;DHT22;10146;47.754;9.566;2023-05-10T14:24:59;16.80;99.90
19970;DHT22;10146;47.754;9.566;2023-05-10T14:27:25;16.60;99.90
19970;DHT22;10146;47.754;9.566;2023-05-10T14:29:51;16.60;99.90
19970;DHT22;10146;47.754;9.566;2023-05-10T14:32:17;16.50;99.90
19970;DHT22;10146;47.754;9.566;2023-05-10T14:34:42;16.30;99.90
19970;DHT22;10146;47.754;9.566;2023-05-10T14:37:10;16.40;99.90
19970;DHT22;10146;47.754;9.566;2023-05-10T14:39:36;16.50;99.90
19970;DHT22;10146;47.754;9.566;2023-05-10T14:42:03;16.50;99.90
19970;DHT22;10146;47.754;9.566;2023-05-10T14:44:28;16.30;99.90
19970;DHT22;10146;47.754;9.566;2023-05-10T14:46:54;16.40;99.90
19970;DHT22;10146;47.754;9.566;2023-05-10T14:49:20;16.40;99.90
19970;DHT22;10146;47.754;9.566;2023-05-10T14:51:48;16.30;99.90
19970;DHT22;10146;47.754;9.566;2023-05-10T14:54:14;16.30;99.90
19970;DHT22;10146;47.754;9.566;2023-05-10T14:56:39;16.30;99.90
19970;DHT22;10146;47.754;9.566;2023-05-10T14:59:07;16.30;99.90
19970;DHT22;10146;47.754;9.566;2023-05-10T15:01:32;16.30;99.90
19970;DHT22;10146;47.754;9.566;2023-05-10T15:04:00;16.30;99.90
19970;DHT22;10146;47.754;9.566;2023-05-10T15:06:34;16.30;99.90
19970;DHT22;10146;47.754;9.566;2023-05-10T15:09:01;16.30;99.90
19970;DHT22;10146;47.754;9.566;2023-05-10T15:11:28;16.20;99.90
19970;DHT22;10146;47.754;9.566;2023-05-10T15:13:55;16.20;99.90
19970;DHT22;10146;47.754;9.566;2023-05-10T15:16:20;16.20;99.90
19970;DHT22;10146;47.754;9.566;2023-05-10T15:18:46;16.20;99.90
19970;DHT22;10146;47.754;9.566;2023-05-10T15:21:11;16.20;99.90
19970;DHT22;10146;47.754;9.566;2023-05-10T15:23:37;16.10;99.90
19970;DHT22;10146;47.754;9.566;2023-05-10T15:26:03;16.10;99.90
19970;DHT22;10146;47.754;9.566;2023-05-10T15:28:29;16.20;99.90
19970;DHT22;10146;47.754;9.566;2023-05-10T15:30:55;16.10;99.90
19970;DHT22;10146;47.754;9.566;2023-05-10T15:33:21;16.00;99.90
19970;DHT22;10146;47.754;9.566;2023-05-10T15:35:47;15.90;99.90
19970;DHT22;10146;47.754;9.566;2023-05-10T15:38:13;15.70;99.90
19970;DHT22;10146;47.754;9.566;2023-05-10T15:40:38;15.60;99.90
19970;DHT22;10146;47.754;9.566;2023-05-10T15:43:04;15.70;99.90
19970;DHT22;10146;47.754;9.566;2023-05-10T15:45:30;15.60;99.90
19970;DHT22;10146;47.754;9.566;2023-05-10T15:47:57;15.50;99.90
19970;DHT22;10146;47.754;9.566;2023-05-10T15:50:23;15.50;99.90
19970;DHT22;10146;47.754;9.566;2023-05-10T15:52:48;15.50;99.90
19970;DHT22;10146;47.754;9.566;2023-05-10T15:55:14;15.50;99.90
19970;DHT22;10146;47.754;9.566;2023-05-10T15:57:40;15.50;99.90
19970;DHT22;10146;47.754;9.566;2023-05-10T16:00:10;15.50;99.90
19970;DHT22;10146;47.754;9.566;2023-05-10T16:02:37;15.40;99.90
19970;DHT22;10146;47.754;9.566;2023-05-10T16:05:03;15.30;99.90
19970;DHT22;10146;47.754;9.566;2023-05-10T16:07:29;15.30;99.90
19970;DHT22;10146;47.754;9.566;2023-05-10T16:09:54;15.30;99.90
19970;DHT22;10146;47.754;9.566;2023-05-10T16:12:20;15.30;99.90